Time;durP1;ratioP1;P1;durP2;ratioP2;P2;SDS_P1;SDS_P2;PMS_P1;PMS_P2;Temp;Humidity;BMP_temperature;BMP_pressure;BME280_temperature;BME280_humidity;BME280_pressure;Samples;Min_cycle;Max_cycle;Signal;HPM_P1;HPM_P2
2021/05/01 00:01:58;;;;;;;9.45;3.17;;;14.50;68.80;;;;;;6106966;29;20454;-80
2021/05/01 00:05:02;;;;;;;5.30;3.38;;;14.50;68.90;;;;;;6102473;29;20036;-82
2021/05/01 00:08:03;;;;;;;4.85;3.17;;;14.50;69.00;;;;;;6091855;29;20073;-79
2021/05/01 00:11:05;;;;;;;4.30;3.20;;;14.50;69.10;;;;;;6084744;29;20033;-79
2021/05/01 00:14:06;;;;;;;4.85;3.38;;;14.50;69.10;;;;;;6100530;29;20120;-81
2021/05/01 00:17:07;;;;;;;6.13;3.67;;;14.40;69.10;;;;;;6090357;29;20032;-79
2021/05/01 00:20:08;;;;;;;5.35;3.60;;;14.50;69.20;;;;;;6106888;29;20099;-80
2021/05/01 00:23:10;;;;;;;4.97;3.17;;;14.50;69.20;;;;;;6106961;29;20032;-80
2021/05/01 00:26:11;;;;;;;5.32;3.42;;;14.50;69.20;;;;;;6096834;29;20055;-81
2021/05/01 00:29:12;;;;;;;7.22;3.90;;;14.50;69.50;;;;;;6098271;29;20037;-81
2021/05/01 00:32:13;;;;;;;9.57;4.32;;;14.50;69.60;;;;;;6112986;29;20039;-78
2021/05/01 00:35:14;;;;;;;6.95;4.13;;;14.60;69.80;;;;;;6078050;29;20028;-80
2021/05/01 00:38:16;;;;;;;5.63;4.13;;;14.60;69.80;;;;;;6086742;29;20056;-80
2021/05/01 00:41:19;;;;;;;7.90;4.07;;;14.60;69.70;;;;;;6078134;29;20115;-80
2021/05/01 00:44:20;;;;;;;7.85;4.40;;;14.70;69.80;;;;;;6068188;29;20047;-80
2021/05/01 00:47:22;;;;;;;6.97;3.88;;;14.70;69.70;;;;;;6087611;29;20032;-80
2021/05/01 00:50:23;;;;;;;5.88;4.13;;;14.80;69.70;;;;;;6105623;29;20028;-80
2021/05/01 00:53:24;;;;;;;6.75;4.00;;;14.80;69.70;;;;;;6089196;29;20482;-80
2021/05/01 00:56:27;;;;;;;7.13;4.50;;;14.80;69.60;;;;;;6106035;29;20456;-81
2021/05/01 00:59:28;;;;;;;7.35;4.55;;;14.80;69.50;;;;;;6085418;29;20541;-81
2021/05/01 01:02:31;;;;;;;7.50;4.72;;;14.90;69.50;;;;;;6082799;29;20047;-79
2021/05/01 01:05:33;;;;;;;8.77;5.05;;;14.90;69.40;;;;;;6082607;29;20048;-80
2021/05/01 01:08:35;;;;;;;10.77;4.85;;;14.90;69.40;;;;;;6082781;29;20091;-80
2021/05/01 01:11:37;;;;;;;8.00;4.00;;;14.90;69.30;;;;;;6083682;29;20131;-80
2021/05/01 01:14:38;;;;;;;8.68;4.43;;;15.00;69.30;;;;;;6083603;29;20044;-80
2021/05/01 01:17:39;;;;;;;6.97;4.80;;;15.00;69.10;;;;;;6083510;29;20047;-80
2021/05/01 01:20:41;;;;;;;8.70;4.88;;;15.10;69.10;;;;;;6068589;29;20029;-81
2021/05/01 01:23:42;;;;;;;7.55;4.80;;;15.10;68.90;;;;;;6084354;29;20040;-79
2021/05/01 01:26:44;;;;;;;8.13;4.35;;;15.20;69.60;;;;;;6082491;29;20041;-80
2021/05/01 01:29:48;;;;;;;6.35;4.22;;;15.20;68.70;;;;;;6082145;29;20036;-81
2021/05/01 01:32:49;;;;;;;9.45;5.15;;;15.20;68.50;;;;;;6098173;29;20479;-81
2021/05/01 01:35:50;;;;;;;10.38;5.40;;;15.30;68.50;;;;;;6091956;29;20024;-81
2021/05/01 01:38:51;;;;;;;12.90;5.85;;;15.30;68.30;;;;;;6083713;29;20096;-80
2021/05/01 01:41:53;;;;;;;13.70;6.30;;;15.30;68.20;;;;;;6082384;29;20029;-80
2021/05/01 01:44:56;;;;;;;9.88;5.78;;;15.30;68.20;;;;;;6097989;29;20043;-80
2021/05/01 01:47:58;;;;;;;13.23;6.22;;;15.20;68.40;;;;;;6082483;29;20036;-80
2021/05/01 01:50:59;;;;;;;13.13;7.28;;;15.20;68.50;;;;;;6081592;29;20067;-80
2021/05/01 01:54:00;;;;;;;10.77;6.70;;;15.20;68.70;;;;;;6082929;29;20056;-80
2021/05/01 01:57:02;;;;;;;11.02;6.22;;;15.20;68.80;;;;;;6086955;29;20372;-81
2021/05/01 02:00:07;;;;;;;10.93;6.95;;;15.10;68.90;;;;;;6105996;29;20052;-81
2021/05/01 02:03:17;;;;;;;15.02;7.43;;;15.20;69.00;;;;;;6102579;29;20040;-80
2021/05/01 02:06:18;;;;;;;13.05;7.07;;;15.20;69.10;;;;;;6089573;29;20032;-79
2021/05/01 02:09:20;;;;;;;15.57;8.07;;;15.20;69.10;;;;;;6075144;29;20032;-79
2021/05/01 02:12:22;;;;;;;14.35;7.95;;;15.20;68.90;;;;;;6129867;29;20105;-79
2021/05/01 02:15:24;;;;;;;13.98;8.43;;;15.20;68.90;;;;;;6096738;29;20365;-79
2021/05/01 02:18:25;;;;;;;21.63;8.82;;;15.20;68.90;;;;;;6086895;29;20492;-80
2021/05/01 02:21:26;;;;;;;15.10;7.22;;;15.30;68.90;;;;;;6090122;29;20043;-80
2021/05/01 02:24:27;;;;;;;11.90;6.38;;;15.30;68.80;;;;;;6078407;29;20392;-80
2021/05/01 02:27:28;;;;;;;9.57;6.28;;;15.30;68.70;;;;;;6092557;29;20353;-80
2021/05/01 02:30:30;;;;;;;10.40;6.32;;;15.30;68.70;;;;;;6087071;29;20037;-80
2021/05/01 02:33:31;;;;;;;10.85;6.47;;;15.20;68.60;;;;;;6086591;29;20059;-80
2021/05/01 02:36:32;;;;;;;12.18;6.93;;;15.20;68.60;;;;;;6087445;29;20056;-80
2021/05/01 02:39:35;;;;;;;12.13;6.60;;;15.10;68.60;;;;;;6086870;29;20029;-80
2021/05/01 02:42:37;;;;;;;12.98;6.95;;;15.10;68.60;;;;;;6102248;29;20033;-80
2021/05/01 02:45:39;;;;;;;12.80;7.00;;;15.20;68.80;;;;;;6104531;29;20095;-80
2021/05/01 02:48:40;;;;;;;11.13;7.00;;;15.10;68.70;;;;;;6098841;29;20033;-80
2021/05/01 02:51:41;;;;;;;13.75;6.88;;;15.10;68.80;;;;;;6086232;29;20132;-81
2021/05/01 02:59:04;;;;;;;12.23;7.07;;;15.10;69.00;;;;;;6106963;29;20468;-81
2021/05/01 03:02:06;;;;;;;11.27;7.25;;;15.10;68.90;;;;;;6117534;29;20059;-80
2021/05/01 03:05:09;;;;;;;10.13;6.50;;;15.10;68.90;;;;;;6116562;29;20118;-80
2021/05/01 03:08:10;;;;;;;11.48;7.25;;;15.10;68.90;;;;;;6132378;29;20367;-80
2021/05/01 03:11:11;;;;;;;9.95;6.25;;;15.10;69.00;;;;;;6116536;29;20131;-80
2021/05/01 03:14:12;;;;;;;11.05;6.50;;;15.10;69.10;;;;;;6133712;29;20094;-80
2021/05/01 03:17:14;;;;;;;10.68;6.10;;;15.10;69.20;;;;;;6132897;29;20481;-80
2021/05/01 03:20:16;;;;;;;11.05;6.43;;;15.00;69.20;;;;;;6115532;29;20478;-80
2021/05/01 03:23:19;;;;;;;12.07;5.22;;;15.00;69.30;;;;;;6116352;29;20423;-80
2021/05/01 03:26:21;;;;;;;8.35;4.65;;;15.00;69.30;;;;;;6132972;29;20032;-79
2021/05/01 03:29:22;;;;;;;9.93;5.10;;;14.90;69.30;;;;;;6133075;29;20043;-81
2021/05/01 03:32:23;;;;;;;8.15;4.93;;;14.80;69.30;;;;;;6115876;29;20562;-80
2021/05/01 03:35:24;;;;;;;11.35;4.90;;;14.80;69.40;;;;;;6116211;29;20098;-80
2021/05/01 03:38:25;;;;;;;8.43;4.90;;;14.80;69.40;;;;;;6133432;29;20031;-80
2021/05/01 03:41:28;;;;;;;7.45;4.50;;;14.80;69.40;;;;;;6132234;29;20074;-80
2021/05/01 03:44:29;;;;;;;7.90;4.75;;;14.80;69.30;;;;;;6116205;29;20062;-80
2021/05/01 03:47:30;;;;;;;8.20;4.93;;;14.80;69.30;;;;;;6132871;29;20043;-80
2021/05/01 03:50:31;;;;;;;6.32;4.07;;;14.80;69.30;;;;;;6132125;29;20031;-79
2021/05/01 03:53:35;;;;;;;5.68;3.90;;;14.80;69.30;;;;;;6116143;29;20126;-81
2021/05/01 03:56:37;;;;;;;8.18;4.57;;;14.80;69.30;;;;;;6115468;29;20046;-81
2021/05/01 03:59:38;;;;;;;6.88;4.28;;;14.70;69.20;;;;;;6115127;29;20090;-80
2021/05/01 04:02:40;;;;;;;5.78;3.90;;;14.70;69.20;;;;;;6130511;29;20036;-80
2021/05/01 04:05:41;;;;;;;5.53;3.60;;;14.70;69.20;;;;;;6131639;29;20027;-80
2021/05/01 04:08:42;;;;;;;5.60;3.50;;;14.70;69.20;;;;;;6130934;29;20036;-80
2021/05/01 04:11:43;;;;;;;6.03;3.45;;;14.60;69.20;;;;;;6115030;29;20035;-80
2021/05/01 04:14:44;;;;;;;4.78;3.25;;;14.60;69.10;;;;;;6115163;29;20375;-80
2021/05/01 04:17:46;;;;;;;6.50;3.80;;;14.60;69.10;;;;;;6130231;29;20059;-81
2021/05/01 04:20:47;;;;;;;6.00;3.72;;;14.60;69.20;;;;;;6110635;29;20494;-80
2021/05/01 04:23:49;;;;;;;6.30;3.58;;;14.50;69.10;;;;;;6110158;29;20043;-80
2021/05/01 04:26:51;;;;;;;5.72;3.72;;;14.50;69.20;;;;;;6137643;29;20485;-80
2021/05/01 04:29:52;;;;;;;5.82;3.58;;;14.60;69.20;;;;;;6114666;29;20039;-80
2021/05/01 04:32:53;;;;;;;10.35;3.97;;;14.60;69.20;;;;;;6114811;29;20407;-81
2021/05/01 04:35:55;;;;;;;6.28;3.47;;;14.60;69.20;;;;;;6096090;29;20060;-80
2021/05/01 04:38:56;;;;;;;4.95;3.05;;;14.60;70.10;;;;;;6130823;29;20510;-80
2021/05/01 04:41:58;;;;;;;5.38;3.65;;;14.60;69.20;;;;;;6114844;29;20040;-80
2021/05/01 04:44:59;;;;;;;6.47;3.75;;;14.60;69.20;;;;;;6114315;29;20055;-80
2021/05/01 04:48:00;;;;;;;5.32;3.13;;;14.60;69.10;;;;;;6124927;29;20031;-80
2021/05/01 04:51:01;;;;;;;5.53;3.30;;;14.70;69.20;;;;;;6129825;29;20051;-80
2021/05/01 04:54:03;;;;;;;3.40;2.53;;;14.70;69.10;;;;;;6114430;29;20051;-81
2021/05/01 04:57:05;;;;;;;4.82;2.85;;;14.70;69.00;;;;;;6130967;29;20027;-80
2021/05/01 05:00:11;;;;;;;4.53;2.60;;;14.70;69.00;;;;;;6130424;29;20062;-80
2021/05/01 05:03:12;;;;;;;4.38;2.55;;;14.80;69.20;;;;;;6113379;29;20040;-80
2021/05/01 05:06:15;;;;;;;5.75;2.80;;;14.70;69.00;;;;;;6113763;29;20485;-80
2021/05/01 05:09:16;;;;;;;3.60;2.20;;;14.70;69.00;;;;;;6113801;29;20032;-80
2021/05/01 05:12:17;;;;;;;3.88;2.40;;;14.70;69.00;;;;;;6113683;29;20032;-80
2021/05/01 05:15:18;;;;;;;5.13;2.70;;;14.70;69.00;;;;;;6113632;29;20090;-79
2021/05/01 05:18:20;;;;;;;4.60;2.47;;;14.70;69.10;;;;;;6113433;29;20028;-81
2021/05/01 05:21:22;;;;;;;3.05;2.22;;;14.60;69.10;;;;;;6113669;29;20080;-80
2021/05/01 05:24:23;;;;;;;4.35;2.55;;;14.60;69.30;;;;;;6098521;29;20040;-79
2021/05/01 05:27:24;;;;;;;3.28;2.20;;;14.60;69.50;;;;;;6114448;29;20059;-82
2021/05/01 05:30:25;;;;;;;3.45;2.30;;;14.50;69.50;;;;;;6113475;29;20415;-81
2021/05/01 05:33:26;;;;;;;2.60;1.40;;;14.50;69.60;;;;;;6114129;29;20046;-81
2021/05/01 05:36:27;;;;;;;2.13;1.48;;;14.40;69.50;;;;;;6133303;29;20519;-79
2021/05/01 05:39:30;;;;;;;1.95;1.25;;;14.40;69.60;;;;;;6140205;29;20070;-79
2021/05/01 05:42:32;;;;;;;1.45;0.95;;;14.40;69.70;;;;;;6122786;29;20474;-81
2021/05/01 05:45:33;;;;;;;2.08;1.00;;;14.30;69.50;;;;;;6114348;29;20031;-81
2021/05/01 05:48:34;;;;;;;0.82;0.77;;;14.40;69.50;;;;;;6129519;29;20035;-79
2021/05/01 05:51:36;;;;;;;1.83;0.93;;;14.30;69.40;;;;;;6113541;29;20451;-81
2021/05/01 05:54:37;;;;;;;0.80;0.80;;;14.40;69.20;;;;;;6129636;29;20023;-80
2021/05/01 05:57:41;;;;;;;1.20;0.80;;;14.30;69.10;;;;;;6113882;29;20063;-79
2021/05/01 06:00:43;;;;;;;1.05;0.73;;;14.40;68.90;;;;;;6113567;29;20102;-81
2021/05/01 06:03:49;;;;;;;1.55;1.00;;;14.40;68.70;;;;;;6113297;29;20038;-80
2021/05/01 06:07:06;;;;;;;2.38;1.13;;;14.40;68.60;;;;;;6113812;29;20371;-80
2021/05/01 06:10:09;;;;;;;1.20;0.90;;;14.50;68.60;;;;;;6097657;29;20059;-80
2021/05/01 06:13:13;;;;;;;2.63;1.40;;;14.50;68.20;;;;;;6128792;29;20122;-80
2021/05/01 06:16:14;;;;;;;1.77;1.10;;;14.50;67.90;;;;;;6113071;29;20058;-80
2021/05/01 06:19:15;;;;;;;1.58;0.98;;;14.50;68.00;;;;;;6113310;29;20027;-81
2021/05/01 06:22:18;;;;;;;3.47;1.83;;;14.40;67.80;;;;;;6113979;29;20027;-81
2021/05/01 06:25:20;;;;;;;2.70;1.48;;;14.40;67.90;;;;;;6129257;29;20114;-81
2021/05/01 06:28:23;;;;;;;4.55;2.72;;;14.40;67.90;;;;;;6112889;29;20032;-79
2021/05/01 06:31:28;;;;;;;3.63;2.60;;;14.50;67.70;;;;;;6129468;29;20367;-80
2021/05/01 06:34:31;;;;;;;2.33;1.23;;;14.50;67.70;;;;;;6113493;29;20355;-80
2021/05/01 06:37:32;;;;;;;1.05;0.77;;;14.60;67.60;;;;;;6112891;29;20063;-80
2021/05/01 06:40:39;;;;;;;1.63;1.15;;;14.60;67.30;;;;;;6114578;29;20459;-80
2021/05/01 06:44:03;;;;;;;1.38;1.02;;;14.60;67.10;;;;;;6101508;29;20047;-80
2021/05/01 06:47:06;;;;;;;1.90;1.20;;;14.60;67.10;;;;;;6116982;29;20379;-80
2021/05/01 06:50:12;;;;;;;1.58;1.20;;;14.50;66.90;;;;;;6118549;29;20471;-80
2021/05/01 06:53:40;;;;;;;2.90;1.30;;;14.50;67.20;;;;;;6135103;29;20042;-81
2021/05/01 06:56:43;;;;;;;4.07;1.10;;;14.40;67.50;;;;;;6119040;29;20035;-81
2021/05/01 06:59:44;;;;;;;2.13;1.20;;;14.40;67.80;;;;;;6138642;29;20079;-81
2021/05/01 07:02:51;;;;;;;1.48;0.95;;;14.40;67.80;;;;;;6125145;29;20367;-82
2021/05/01 07:05:57;;;;;;;1.58;1.02;;;14.40;67.90;;;;;;6120964;29;20028;-80
2021/05/01 07:09:00;;;;;;;1.70;1.10;;;14.30;67.80;;;;;;6109058;29;20032;-80
2021/05/01 07:12:01;;;;;;;0.82;0.75;;;14.20;68.10;;;;;;6133158;29;20130;-79
2021/05/01 07:15:11;;;;;;;1.05;0.90;;;14.10;68.30;;;;;;6143121;29;20031;-81
2021/05/01 07:18:14;;;;;;;1.17;0.93;;;14.10;68.70;;;;;;6137293;29;20038;-81
2021/05/01 07:21:15;;;;;;;1.20;0.70;;;14.10;68.80;;;;;;6117548;29;20046;-81
2021/05/01 07:24:16;;;;;;;1.20;0.50;;;14.20;69.00;;;;;;6116321;29;20038;-81
2021/05/01 07:27:18;;;;;;;0.52;0.52;;;14.20;68.90;;;;;;6116430;29;20086;-81
2021/05/01 07:30:24;;;;;;;0.45;0.43;;;14.20;68.70;;;;;;6116324;29;20043;-81
2021/05/01 07:33:32;;;;;;;0.50;0.50;;;14.20;68.60;;;;;;6133011;29;20035;-81
2021/05/01 07:36:44;;;;;;;0.77;0.57;;;14.10;68.60;;;;;;6132953;29;20095;-80
2021/05/01 07:39:50;;;;;;;0.80;0.70;;;14.10;68.90;;;;;;6116731;29;20184;-80
2021/05/01 07:42:52;;;;;;;1.05;0.68;;;14.10;69.00;;;;;;6139353;29;20043;-79
2021/05/01 07:45:54;;;;;;;0.50;0.45;;;14.10;68.90;;;;;;6117059;29;20036;-80
2021/05/01 07:48:55;;;;;;;3.25;0.40;;;14.20;68.90;;;;;;6115965;29;20067;-81
2021/05/01 07:51:59;;;;;;;1.27;0.65;;;14.10;69.00;;;;;;6114696;29;20027;-81
2021/05/01 07:55:00;;;;;;;1.35;0.60;;;14.10;69.00;;;;;;6115959;29;20038;-81
2021/05/01 07:58:01;;;;;;;0.52;0.40;;;14.10;69.00;;;;;;6115738;29;20123;-80
2021/05/01 08:01:03;;;;;;;0.93;0.60;;;14.10;69.00;;;;;;6065990;29;20049;-80
2021/05/01 08:04:05;;;;;;;1.42;0.80;;;14.10;69.00;;;;;;6083895;29;20105;-81
2021/05/01 08:07:06;;;;;;;0.43;0.43;;;14.00;69.00;;;;;;6084390;29;20037;-81
2021/05/01 08:10:10;;;;;;;0.57;0.57;;;14.10;69.00;;;;;;6069453;29;20064;-81
2021/05/01 08:13:11;;;;;;;1.75;0.82;;;14.20;69.00;;;;;;6084085;29;20092;-80
2021/05/01 08:16:14;;;;;;;1.08;0.60;;;14.30;68.80;;;;;;6084496;29;20040;-81
2021/05/01 08:19:16;;;;;;;0.75;0.68;;;14.40;68.80;;;;;;6083698;29;20028;-80
2021/05/01 08:22:17;;;;;;;2.08;1.17;;;14.50;68.50;;;;;;6084986;29;20025;-80
2021/05/01 08:25:18;;;;;;;1.83;1.00;;;14.60;68.40;;;;;;6085451;29;20036;-80
2021/05/01 08:28:19;;;;;;;3.38;1.83;;;14.70;68.40;;;;;;6099076;29;20033;-80
2021/05/01 08:31:21;;;;;;;3.80;1.70;;;14.80;68.60;;;;;;6099563;29;20043;-80
2021/05/01 08:34:22;;;;;;;6.28;2.22;;;14.90;68.60;;;;;;6083791;29;20033;-81
2021/05/01 08:37:23;;;;;;;2.45;1.80;;;15.00;68.50;;;;;;6083616;29;20460;-82
2021/05/01 08:40:25;;;;;;;3.90;2.10;;;15.00;68.40;;;;;;6083448;29;20036;-81
2021/05/01 08:43:28;;;;;;;3.70;2.42;;;15.10;68.50;;;;;;6098658;29;20033;-80
2021/05/01 08:46:29;;;;;;;3.20;2.10;;;15.10;68.40;;;;;;6098758;29;20036;-81
2021/05/01 08:49:31;;;;;;;4.75;2.38;;;15.10;68.40;;;;;;6098958;29;20127;-80
2021/05/01 08:52:36;;;;;;;7.40;2.78;;;15.20;68.40;;;;;;6083545;29;20495;-80
2021/05/01 08:55:40;;;;;;;6.80;2.88;;;15.30;68.30;;;;;;6084744;29;20047;-80
2021/05/01 08:58:42;;;;;;;6.03;3.08;;;15.40;68.30;;;;;;6090445;29;20456;-80
2021/05/01 09:01:43;;;;;;;5.05;2.58;;;15.50;68.10;;;;;;6119584;29;20035;-81
2021/05/01 09:04:49;;;;;;;4.57;3.00;;;15.50;67.80;;;;;;6117332;29;20396;-81
2021/05/01 09:07:51;;;;;;;3.97;2.70;;;15.50;67.80;;;;;;6115673;29;20095;-80
2021/05/01 09:10:54;;;;;;;5.05;3.08;;;15.50;67.90;;;;;;6129819;29;20091;-81
2021/05/01 09:13:57;;;;;;;26.58;13.00;;;15.60;67.70;;;;;;6130627;29;20067;-80
2021/05/01 09:16:59;;;;;;;27.23;11.38;;;15.60;67.40;;;;;;6129579;29;20375;-80
2021/05/01 09:20:03;;;;;;;10.88;4.88;;;15.60;67.30;;;;;;6114010;29;20031;-80
2021/05/01 09:23:07;;;;;;;10.68;4.85;;;15.60;67.40;;;;;;6113654;29;20493;-80
2021/05/01 09:26:09;;;;;;;5.53;3.15;;;15.70;67.40;;;;;;6118131;29;20103;-80
2021/05/01 09:29:10;;;;;;;6.65;3.47;;;15.80;68.20;;;;;;6126126;29;20032;-80
2021/05/01 09:32:23;;;;;;;7.90;3.00;;;15.90;67.30;;;;;;6140143;29;20036;-79
2021/05/01 09:35:24;;;;;;;3.67;2.28;;;15.80;67.10;;;;;;6120331;29;20114;-81
2021/05/01 09:38:30;;;;;;;4.45;3.00;;;15.80;66.90;;;;;;6130484;29;20027;-81
2021/05/01 09:41:35;;;;;;;4.80;3.00;;;15.80;67.00;;;;;;6115048;29;20072;-80
2021/05/01 09:44:37;;;;;;;4.53;2.75;;;15.90;67.10;;;;;;6126512;29;20042;-79
2021/05/01 09:47:38;;;;;;;3.38;2.35;;;16.00;67.10;;;;;;6131408;29;20097;-79
2021/05/01 09:50:39;;;;;;;5.65;3.00;;;16.00;66.80;;;;;;6115237;29;20123;-80
2021/05/01 09:53:40;;;;;;;2.67;2.00;;;16.00;66.70;;;;;;6114605;29;20047;-79
2021/05/01 09:56:44;;;;;;;3.80;2.20;;;15.90;66.90;;;;;;6113446;29;20035;-83
2021/05/01 09:59:50;;;;;;;6.88;2.60;;;16.00;67.10;;;;;;6128998;29;20048;-80
2021/05/01 10:02:51;;;;;;;3.42;2.40;;;16.10;66.70;;;;;;6130877;29;20035;-80
2021/05/01 10:05:56;;;;;;;16.15;6.95;;;16.20;66.60;;;;;;6114893;29;20545;-80
2021/05/01 10:09:00;;;;;;;17.08;5.70;;;16.30;66.40;;;;;;6115148;29;20046;-80
2021/05/01 10:12:22;;;;;;;9.63;3.38;;;16.30;66.70;;;;;;6113852;29;20067;-81
2021/05/01 10:15:27;;;;;;;1.33;0.80;;;16.40;65.60;;;;;;6116124;29;20027;-80
2021/05/01 10:18:29;;;;;;;2.17;1.30;;;16.40;65.20;;;;;;6118556;29;20042;-82
2021/05/01 10:21:31;;;;;;;4.28;2.42;;;16.50;65.10;;;;;;6135237;29;20034;-80
2021/05/01 10:24:42;;;;;;;4.80;2.05;;;16.50;64.90;;;;;;6134479;29;20118;-80
2021/05/01 10:27:59;;;;;;;4.30;2.20;;;16.60;65.00;;;;;;6118540;29;20029;-80
2021/05/01 10:31:11;;;;;;;2.90;1.75;;;16.60;65.00;;;;;;6136504;29;20451;-81
2021/05/01 10:34:12;;;;;;;4.20;2.28;;;16.70;65.00;;;;;;6118156;29;20031;-80
2021/05/01 10:37:16;;;;;;;4.82;3.00;;;16.70;64.90;;;;;;6119987;29;20028;-81
2021/05/01 10:40:17;;;;;;;3.65;2.42;;;16.70;64.80;;;;;;6136953;29;20554;-81
2021/05/01 10:43:21;;;;;;;10.32;2.25;;;16.80;64.90;;;;;;6135482;29;20126;-82
2021/05/01 10:46:28;;;;;;;4.63;2.25;;;16.90;64.80;;;;;;6118722;29;20050;-80
2021/05/01 10:49:34;;;;;;;1.95;1.30;;;16.90;64.60;;;;;;6118590;29;20035;-81
2021/05/01 10:52:50;;;;;;;2.10;1.63;;;16.90;64.50;;;;;;6126719;29;20039;-80
2021/05/01 10:55:54;;;;;;;1.65;1.33;;;16.90;64.30;;;;;;6118320;29;20063;-81
2021/05/01 10:58:56;;;;;;;2.67;1.45;;;16.90;64.30;;;;;;6133937;29;20343;-79
2021/05/01 11:02:01;;;;;;;1.08;0.70;;;16.80;64.20;;;;;;6133749;29;20101;-80
2021/05/01 11:05:05;;;;;;;1.00;0.65;;;16.80;64.00;;;;;;6120492;29;20039;-80
2021/05/01 11:08:50;;;;;;;1.17;0.75;;;16.70;63.90;;;;;;6118658;29;20036;-81
2021/05/01 11:11:59;;;;;;;1.00;0.63;;;16.70;63.70;;;;;;6129516;29;20095;-80
2021/05/01 11:15:10;;;;;;;0.93;0.60;;;16.60;63.40;;;;;;6118492;29;20028;-80
2021/05/01 11:18:19;;;;;;;1.20;0.50;;;16.60;63.10;;;;;;6125184;29;20275;-80
2021/05/01 11:21:21;;;;;;;;;;;16.60;63.00;;;;;;6121347;29;20028;-80
2021/05/01 11:24:23;;;;;;;0.82;0.70;;;16.70;62.90;;;;;;6117843;29;20021;-80
2021/05/01 11:27:25;;;;;;;6.25;1.75;;;16.80;62.40;;;;;;6132295;29;20099;-80
2021/05/01 11:30:28;;;;;;;1.15;0.88;;;16.90;62.10;;;;;;6116234;29;20036;-80
2021/05/01 11:33:32;;;;;;;0.50;0.50;;;16.90;61.90;;;;;;6133203;29;20046;-81
2021/05/01 11:36:44;;;;;;;0.57;0.57;;;17.00;61.80;;;;;;6116202;29;20083;-81
2021/05/01 11:39:47;;;;;;;0.93;0.80;;;17.10;61.30;;;;;;6116730;29;20032;-81
2021/05/01 11:42:49;;;;;;;0.50;0.50;;;17.30;61.10;;;;;;6116537;29;20063;-79
2021/05/01 11:46:27;;;;;;;0.35;0.32;;;17.50;60.70;;;;;;6132087;29;20459;-80
2021/05/01 11:49:29;;;;;;;0.75;0.57;;;17.60;60.10;;;;;;6056930;29;20045;-79
2021/05/01 11:52:52;;;;;;;1.35;0.50;;;17.70;59.70;;;;;;6060296;29;20041;-81
2021/05/01 11:55:59;;;;;;;0.70;0.70;;;17.80;59.60;;;;;;6060260;29;20410;-79
2021/05/01 11:59:11;;;;;;;0.73;0.60;;;17.80;59.30;;;;;;6041364;29;20041;-79
2021/05/01 12:02:15;;;;;;;0.95;0.57;;;17.90;59.30;;;;;;6047844;29;20056;-80
2021/05/01 12:05:22;;;;;;;0.63;0.55;;;17.90;59.00;;;;;;6043523;29;20055;-80
2021/05/01 12:08:25;;;;;;;0.77;0.70;;;17.80;58.80;;;;;;6053674;29;20127;-81
2021/05/01 12:11:29;;;;;;;0.50;0.43;;;17.70;59.10;;;;;;6044269;29;20485;-79
2021/05/01 12:14:31;;;;;;;0.80;0.50;;;17.60;59.20;;;;;;6059874;29;20338;-84
2021/05/01 12:17:33;;;;;;;0.65;0.47;;;17.50;59.40;;;;;;6044583;29;20165;-80
2021/05/01 12:20:36;;;;;;;0.50;0.38;;;17.40;59.60;;;;;;6043239;29;20465;-82
2021/05/01 12:23:48;;;;;;;1.75;0.50;;;17.30;59.60;;;;;;6061099;29;20134;-80
2021/05/01 12:26:50;;;;;;;0.60;0.50;;;17.20;59.80;;;;;;6109287;29;20054;-82
2021/05/01 12:29:51;;;;;;;0.93;0.60;;;17.10;59.60;;;;;;6114886;29;20047;-80
2021/05/01 12:32:55;;;;;;;1.17;0.77;;;17.00;59.80;;;;;;6099370;29;20035;-81
2021/05/01 12:35:59;;;;;;;2.05;1.10;;;17.00;59.80;;;;;;6114844;29;20050;-80
2021/05/01 12:39:00;;;;;;;0.60;0.60;;;17.00;59.80;;;;;;6114485;29;20039;-81
2021/05/01 12:42:28;;;;;;;3.88;0.50;;;16.90;59.80;;;;;;6115022;29;20055;-82
2021/05/01 12:45:33;;;;;;;1.13;0.60;;;16.80;60.10;;;;;;6114949;29;20415;-82
2021/05/01 12:48:51;;;;;;;0.50;0.50;;;16.70;60.20;;;;;;6130482;29;20050;-83
2021/05/01 12:51:57;;;;;;;0.85;0.50;;;16.50;60.00;;;;;;6114576;29;20032;-81
2021/05/01 12:54:58;;;;;;;0.50;0.50;;;16.50;60.40;;;;;;6131655;29;20078;-81
2021/05/01 12:58:17;;;;;;;0.70;0.50;;;16.40;60.70;;;;;;6114941;29;20028;-82
2021/05/01 13:01:23;;;;;;;0.40;0.40;;;16.30;60.90;;;;;;6114290;29;20474;-83
2021/05/01 13:04:29;;;;;;;1.55;0.45;;;16.40;60.90;;;;;;6129736;29;20031;-81
2021/05/01 13:07:31;;;;;;;1.15;0.82;;;16.40;60.40;;;;;;6114212;29;20024;-81
2021/05/01 13:10:33;;;;;;;1.23;0.60;;;16.40;60.40;;;;;;6130290;29;20031;-80
2021/05/01 13:13:37;;;;;;;0.80;0.43;;;16.40;60.50;;;;;;6131819;29;20031;-80
2021/05/01 13:17:02;;;;;;;0.40;0.40;;;16.40;60.40;;;;;;6113932;29;20032;-81
2021/05/01 13:20:13;;;;;;;0.40;0.40;;;16.30;60.20;;;;;;6128672;29;20038;-81
2021/05/01 13:23:14;;;;;;;1.30;0.68;;;16.30;60.20;;;;;;6113778;29;20363;-81
2021/05/01 13:26:20;;;;;;;1.17;0.55;;;16.30;60.40;;;;;;6114336;29;20459;-80
2021/05/01 13:29:30;;;;;;;0.52;0.47;;;16.20;60.50;;;;;;6134243;29;20542;-80
2021/05/01 13:32:32;;;;;;;0.88;0.65;;;16.20;60.70;;;;;;6121785;29;20066;-79
2021/05/01 13:35:35;;;;;;;0.68;0.50;;;16.10;60.80;;;;;;6137257;29;20575;-80
2021/05/01 13:38:36;;;;;;;0.60;0.40;;;16.10;60.90;;;;;;6119305;29;20133;-80
2021/05/01 13:41:38;;;;;;;0.47;0.40;;;16.00;60.90;;;;;;6115250;29;20042;-81
2021/05/01 13:44:46;;;;;;;3.70;0.40;;;16.00;61.30;;;;;;6115555;29;20031;-80
2021/05/01 13:47:49;;;;;;;3.13;0.50;;;15.90;61.20;;;;;;6098440;29;20042;-80
2021/05/01 13:50:50;;;;;;;1.15;0.45;;;15.80;61.20;;;;;;6129214;29;20031;-80
2021/05/01 13:54:04;;;;;;;0.55;0.38;;;15.70;61.40;;;;;;6113726;29;20046;-80
2021/05/01 13:57:09;;;;;;;0.77;0.50;;;15.70;61.80;;;;;;6130404;29;20064;-82
2021/05/01 14:00:14;;;;;;;4.43;0.77;;;15.60;61.90;;;;;;6130052;29;20040;-80
2021/05/01 14:03:23;;;;;;;2.40;1.08;;;15.60;62.10;;;;;;6129372;29;20416;-81
2021/05/01 14:06:25;;;;;;;1.00;0.38;;;15.60;62.40;;;;;;6113019;29;20064;-80
2021/05/01 14:09:34;;;;;;;0.95;0.50;;;15.60;62.30;;;;;;6132352;29;20028;-82
2021/05/01 14:12:35;;;;;;;0.50;0.50;;;15.50;62.40;;;;;;6107119;29;20360;-80
2021/05/01 14:15:36;;;;;;;0.88;0.55;;;15.50;62.70;;;;;;6129234;29;20063;-80
2021/05/01 14:18:37;;;;;;;0.93;0.50;;;15.50;62.90;;;;;;6113443;29;20111;-80
2021/05/01 14:21:39;;;;;;;1.23;0.57;;;15.60;62.90;;;;;;6113162;29;20458;-80
2021/05/01 14:24:40;;;;;;;6.03;0.88;;;15.60;62.90;;;;;;6113055;29;20035;-80
2021/05/01 14:27:46;;;;;;;1.77;0.88;;;15.60;63.00;;;;;;6113003;29;20380;-80
2021/05/01 14:33:59;;;;;;;0.55;0.45;;;15.60;63.30;;;;;;6113025;29;20036;-80
2021/05/01 14:37:00;;;;;;;2.13;0.73;;;15.60;63.30;;;;;;6130315;29;20043;-80
2021/05/01 14:40:01;;;;;;;2.38;0.60;;;15.70;63.10;;;;;;6129224;29;20058;-81
2021/05/01 14:43:02;;;;;;;0.85;0.75;;;15.70;62.90;;;;;;6113377;29;20068;-79
2021/05/01 14:46:24;;;;;;;1.95;0.82;;;15.80;62.80;;;;;;6109978;29;20130;-81
2021/05/01 14:49:27;;;;;;;0.45;0.45;;;15.80;62.80;;;;;;6112706;29;20035;-80
2021/05/01 14:52:37;;;;;;;1.27;0.60;;;15.80;62.60;;;;;;6112625;29;20036;-80
2021/05/01 14:55:40;;;;;;;0.82;0.57;;;15.80;62.70;;;;;;6112668;29;20095;-80
2021/05/01 14:58:41;;;;;;;0.93;0.75;;;15.80;62.70;;;;;;6112505;29;20116;-80
2021/05/01 15:01:42;;;;;;;1.25;0.50;;;15.70;63.00;;;;;;6114162;29;20051;-80
2021/05/01 15:04:50;;;;;;;0.50;0.50;;;15.60;63.30;;;;;;6116669;29;20384;-79
2021/05/01 15:07:54;;;;;;;0.88;0.60;;;15.50;63.60;;;;;;6116119;29;20046;-81
2021/05/01 15:10:56;;;;;;;0.40;0.40;;;15.50;63.70;;;;;;6132935;29;20404;-81
2021/05/01 15:14:16;;;;;;;1.10;0.47;;;15.40;64.00;;;;;;6131638;29;20078;-82
2021/05/01 15:17:17;;;;;;;1.45;0.68;;;15.30;64.30;;;;;;6116891;29;20078;-79
2021/05/01 15:20:28;;;;;;;0.93;0.60;;;15.20;64.30;;;;;;6116528;29;20102;-80
2021/05/01 15:23:30;;;;;;;3.33;0.90;;;15.20;64.50;;;;;;6100452;29;20036;-80
2021/05/01 15:26:31;;;;;;;2.15;0.85;;;15.20;64.60;;;;;;6132197;29;20091;-83
2021/05/01 15:29:32;;;;;;;1.02;0.70;;;15.10;64.80;;;;;;6132574;29;20127;-80
2021/05/01 15:32:33;;;;;;;1.10;0.90;;;15.10;65.10;;;;;;6116184;29;20027;-81
2021/05/01 15:35:36;;;;;;;1.15;0.70;;;15.10;65.30;;;;;;6116656;29;20027;-81
2021/05/01 15:38:38;;;;;;;0.73;0.60;;;15.10;65.50;;;;;;6136510;29;20032;-82
2021/05/01 15:41:39;;;;;;;0.68;0.65;;;15.00;65.60;;;;;;6149828;29;20145;-80
2021/05/01 15:44:43;;;;;;;2.15;1.10;;;15.00;65.70;;;;;;6122626;29;20027;-79
2021/05/01 15:47:45;;;;;;;0.93;0.80;;;15.00;65.80;;;;;;6117067;29;20027;-80
2021/05/01 15:50:46;;;;;;;3.10;0.85;;;14.90;65.80;;;;;;6131848;29;20340;-80
2021/05/01 15:53:48;;;;;;;0.60;0.47;;;14.90;65.70;;;;;;6132817;29;20042;-82
2021/05/01 15:56:50;;;;;;;1.15;0.70;;;14.80;65.80;;;;;;6131314;29;20355;-81
2021/05/01 15:59:51;;;;;;;1.35;0.85;;;14.80;66.00;;;;;;6099533;29;20053;-80
2021/05/01 16:02:52;;;;;;;3.20;0.70;;;14.70;66.00;;;;;;6084411;29;20047;-82